createdAt,value
2022-11-04T00:01:05.704Z,9.20
2022-11-04T00:06:09.022Z,8.00
2022-11-04T00:11:30.414Z,8.40
2022-11-04T00:16:50.507Z,8.60
2022-11-04T00:22:10.676Z,8.40
2022-11-04T00:27:32.610Z,7.20
2022-11-04T00:32:53.285Z,7.60
2022-11-04T00:37:55.954Z,8.00
2022-11-04T00:42:59.954Z,8.00
2022-11-04T00:48:02.667Z,8.60
2022-11-04T00:53:05.763Z,7.60
2022-11-04T00:58:09.926Z,8.00
2022-11-04T01:03:12.584Z,7.20
2022-11-04T01:08:15.273Z,7.60
2022-11-04T01:13:19.201Z,8.80
2022-11-04T01:18:22.079Z,8.00
2022-11-04T01:23:24.843Z,8.00
2022-11-04T01:28:28.843Z,8.80
2022-11-04T01:33:31.611Z,8.00
2022-11-04T01:38:34.558Z,8.60
2022-11-04T01:43:50.468Z,7.00
2022-11-04T01:48:53.198Z,7.00
2022-11-04T01:53:56.279Z,8.00
2022-11-04T01:59:03.172Z,7.00
2022-11-04T02:04:19.752Z,7.00
2022-11-04T02:09:22.578Z,8.00
2022-11-04T02:14:26.642Z,8.00
2022-11-04T02:19:41.506Z,8.20
2022-11-04T02:24:49.203Z,7.20
2022-11-04T02:30:04.008Z,8.80
2022-11-04T02:35:09.533Z,8.00
2022-11-04T02:40:19.550Z,7.00
2022-11-04T02:45:25.086Z,7.60
2022-11-04T02:50:31.222Z,8.00
2022-11-04T02:55:35.447Z,8.20
2022-11-04T03:00:39.522Z,7.00
2022-11-04T03:05:43.511Z,6.20
2022-11-04T03:10:47.180Z,8.80
2022-11-04T03:15:52.240Z,6.80
2022-11-04T03:20:54.968Z,7.40
2022-11-04T03:25:59.562Z,7.00
2022-11-04T03:31:04.324Z,8.20
2022-11-04T03:36:08.696Z,7.20
2022-11-04T03:41:13.439Z,8.00
2022-11-04T03:46:17.705Z,7.20
2022-11-04T03:51:20.462Z,9.80
2022-11-04T03:56:38.355Z,7.40
2022-11-04T04:01:46.611Z,6.80
2022-11-04T04:06:49.244Z,7.20
2022-11-04T04:11:53.633Z,7.60
2022-11-04T04:16:57.775Z,7.00
2022-11-04T04:22:02.747Z,8.20
2022-11-04T04:27:22.913Z,7.60
2022-11-04T04:32:27.512Z,7.00
2022-11-04T04:37:30.135Z,7.20
2022-11-04T04:43:05.233Z,8.00
2022-11-04T04:48:09.690Z,7.00
2022-11-04T04:53:12.399Z,7.80
2022-11-04T04:58:15.051Z,8.00
2022-11-04T05:03:18.985Z,6.40
2022-11-04T05:08:21.643Z,7.00
2022-11-04T05:13:27.272Z,8.80
2022-11-04T05:18:31.254Z,7.00
2022-11-04T05:23:33.973Z,6.20
2022-11-04T05:28:36.605Z,6.60
2022-11-04T05:33:40.573Z,7.00
2022-11-04T05:38:43.324Z,8.00
2022-11-04T05:43:45.994Z,6.00
2022-11-04T05:48:50.025Z,6.40
2022-11-04T05:53:52.827Z,6.80
2022-11-04T05:58:55.658Z,6.40
2022-11-04T06:03:59.993Z,7.00
2022-11-04T06:09:02.660Z,7.00
2022-11-04T06:14:05.441Z,6.60
2022-11-04T06:19:13.481Z,6.80
2022-11-04T06:24:18.651Z,6.00
2022-11-04T06:29:21.236Z,7.00
2022-11-04T06:34:25.250Z,6.20
2022-11-04T06:39:27.826Z,7.00
2022-11-04T06:44:30.505Z,6.20
2022-11-04T06:49:35.921Z,6.80
2022-11-04T06:54:38.601Z,6.40
2022-11-04T06:59:41.247Z,6.00
2022-11-04T07:04:45.369Z,6.20
2022-11-04T07:09:48.108Z,6.20
2022-11-04T07:14:50.931Z,5.40
2022-11-04T07:19:54.901Z,6.00
2022-11-04T07:24:57.558Z,6.20
2022-11-04T07:30:00.185Z,6.80
2022-11-04T07:35:04.548Z,6.00
2022-11-04T07:40:07.836Z,6.00
2022-11-04T07:45:11.078Z,6.00
2022-11-04T07:50:18.355Z,5.80
2022-11-04T07:55:21.031Z,6.00
2022-11-04T08:00:23.937Z,7.00
2022-11-04T08:05:28.203Z,6.00
2022-11-04T08:10:30.842Z,8.60
2022-11-04T08:15:33.495Z,15.80
2022-11-04T08:20:38.426Z,10.00
2022-11-04T08:25:41.116Z,11.00
2022-11-04T08:30:52.318Z,11.00
2022-11-04T08:35:56.783Z,9.20
2022-11-04T08:41:00.264Z,9.00
2022-11-04T08:46:03.249Z,9.00
2022-11-04T08:51:08.374Z,7.60
2022-11-04T08:56:12.637Z,7.80
2022-11-04T09:01:15.299Z,6.80
2022-11-04T09:06:20.774Z,6.80
2022-11-04T09:11:23.556Z,6.00
2022-11-04T09:16:26.219Z,6.00
2022-11-04T09:21:30.334Z,6.00
2022-11-04T09:26:33.000Z,5.00
2022-11-04T09:31:36.365Z,10.80
2022-11-04T09:36:40.942Z,9.80
2022-11-04T09:41:52.304Z,7.20
2022-11-04T09:46:57.840Z,8.60
2022-11-04T09:52:02.045Z,6.80
2022-11-04T09:57:04.950Z,6.80
2022-11-04T10:02:22.346Z,6.00
2022-11-04T10:07:35.567Z,5.60
2022-11-04T10:12:51.244Z,5.80
2022-11-04T10:18:00.458Z,4.80
2022-11-04T10:23:09.105Z,5.00
2022-11-04T10:28:12.150Z,3.00
2022-11-04T10:33:20.342Z,3.00
2022-11-04T10:38:27.308Z,2.80
2022-11-04T10:43:33.592Z,2.40
2022-11-04T10:48:38.815Z,5.00
2022-11-04T10:53:43.187Z,2.40
2022-11-04T10:58:52.281Z,2.80
2022-11-04T11:03:55.388Z,3.00
2022-11-04T11:09:00.282Z,2.20
2022-11-04T11:14:02.956Z,2.60
2022-11-04T11:19:24.944Z,3.00
2022-11-04T11:24:30.722Z,3.00
2022-11-04T11:29:40.065Z,3.00
2022-11-04T11:34:47.029Z,3.00
2022-11-04T11:39:51.032Z,3.00
2022-11-04T11:44:55.085Z,2.80
2022-11-04T11:50:06.607Z,3.00
2022-11-04T11:55:14.465Z,3.00
2022-11-04T12:00:37.602Z,3.00
2022-11-04T12:11:10.145Z,3.00
2022-11-04T12:16:24.944Z,2.00
2022-11-04T12:21:33.391Z,2.80
2022-11-04T12:26:39.579Z,2.00
2022-11-04T12:31:46.332Z,2.00
2022-11-04T12:36:59.191Z,1.80
2022-11-04T12:42:29.655Z,2.00
2022-11-04T12:47:35.960Z,2.00
2022-11-04T12:52:48.025Z,2.40
2022-11-04T12:57:54.585Z,2.00
2022-11-04T13:02:58.800Z,2.00
2022-11-04T13:08:07.580Z,3.00
2022-11-04T13:13:16.363Z,2.80
2022-11-04T13:18:20.277Z,2.00
2022-11-04T13:23:28.836Z,2.20
2022-11-04T13:28:32.894Z,1.80
2022-11-04T13:33:39.688Z,2.00
2022-11-04T13:38:44.493Z,2.00
2022-11-04T13:43:50.431Z,2.00
2022-11-04T13:48:56.307Z,2.00
2022-11-04T13:53:59.087Z,1.00
2022-11-04T13:59:06.610Z,2.20
2022-11-04T14:04:28.174Z,2.00
2022-11-04T14:09:50.288Z,1.80
2022-11-04T14:14:55.463Z,2.00
2022-11-04T14:19:58.978Z,2.00
2022-11-04T14:25:02.454Z,2.00
2022-11-04T14:30:07.989Z,2.40
2022-11-04T14:35:17.900Z,2.00
2022-11-04T14:40:25.901Z,1.80
2022-11-04T14:45:32.768Z,1.80
2022-11-04T14:50:35.716Z,2.00
2022-11-04T14:55:38.358Z,1.00
2022-11-04T15:00:52.413Z,2.20
2022-11-04T15:06:00.316Z,3.00
2022-11-04T15:11:11.313Z,2.00
2022-11-04T15:16:20.883Z,1.80
2022-11-04T15:21:23.772Z,2.40
2022-11-04T15:26:30.424Z,1.00
2022-11-04T15:31:35.539Z,2.00
2022-11-04T15:36:39.758Z,1.80
2022-11-04T15:42:00.610Z,2.00
2022-11-04T15:47:10.213Z,1.80
2022-11-04T15:52:17.368Z,2.00
2022-11-04T15:57:20.967Z,1.20
2022-11-04T16:02:27.687Z,2.00
2022-11-04T16:07:31.695Z,2.00
2022-11-04T16:12:36.326Z,1.00
2022-11-04T16:17:44.737Z,1.40
2022-11-04T16:22:47.463Z,2.00
2022-11-04T16:27:50.191Z,1.40
2022-11-04T16:32:54.838Z,2.00
2022-11-04T16:37:57.745Z,1.00
2022-11-04T16:43:00.398Z,2.00
2022-11-04T16:48:04.673Z,1.40
2022-11-04T16:53:07.666Z,2.00
2022-11-04T16:58:13.252Z,2.60
2022-11-04T17:03:21.837Z,2.80
2022-11-04T17:08:24.786Z,3.00
2022-11-04T17:13:29.833Z,2.20
2022-11-04T17:18:37.449Z,2.60
2022-11-04T17:23:40.101Z,3.60
2022-11-04T17:28:42.847Z,3.00
2022-11-04T17:33:46.882Z,3.00
2022-11-04T17:38:49.708Z,3.00
2022-11-04T17:44:01.632Z,4.00
2022-11-04T17:49:07.777Z,11.00
2022-11-04T17:54:10.695Z,9.00
2022-11-04T17:59:13.784Z,10.80
2022-11-04T18:04:19.181Z,11.80
2022-11-04T18:09:21.887Z,11.80
2022-11-04T18:14:24.754Z,17.80
2022-11-04T18:19:28.853Z,14.00
2022-11-04T18:24:31.631Z,15.00
2022-11-04T18:29:34.584Z,12.00
2022-11-04T18:34:38.752Z,12.00
2022-11-04T18:39:42.384Z,12.80
2022-11-04T18:44:45.016Z,12.40
2022-11-04T18:49:49.572Z,12.00
2022-11-04T18:54:52.236Z,10.80
2022-11-04T18:59:55.167Z,12.40
2022-11-04T19:04:59.150Z,12.40
2022-11-04T19:10:01.760Z,11.00
2022-11-04T19:15:05.919Z,8.80
2022-11-04T19:20:12.667Z,8.80
2022-11-04T19:25:15.610Z,8.40
2022-11-04T19:30:19.335Z,8.80
2022-11-04T19:35:23.576Z,8.20
2022-11-04T19:40:26.377Z,7.40
2022-11-04T19:45:29.036Z,8.00
2022-11-04T19:50:33.201Z,7.60
2022-11-04T19:55:36.261Z,8.00
2022-11-04T20:00:39.343Z,9.80
2022-11-04T20:05:43.532Z,8.00
2022-11-04T20:10:46.132Z,7.40
2022-11-04T20:15:48.837Z,9.00
2022-11-04T20:20:52.970Z,9.00
2022-11-04T20:25:55.749Z,8.00
2022-11-04T20:30:58.388Z,8.00
2022-11-04T20:36:05.307Z,8.40
2022-11-04T20:41:09.019Z,7.20
2022-11-04T20:46:12.604Z,7.80
2022-11-04T20:51:17.582Z,9.00
2022-11-04T20:56:20.654Z,7.40
2022-11-04T21:01:26.497Z,6.80
2022-11-04T21:06:30.709Z,8.00
2022-11-04T21:11:35.098Z,8.00
2022-11-04T21:16:37.815Z,7.60
2022-11-04T21:21:42.858Z,8.40
2022-11-04T21:26:45.594Z,7.00
2022-11-04T21:31:48.519Z,7.80
2022-11-04T21:36:53.096Z,8.40
2022-11-04T21:41:55.724Z,7.00
2022-11-04T21:46:58.388Z,8.40
2022-11-04T21:52:02.386Z,7.40
2022-11-04T21:57:04.995Z,8.00
2022-11-04T22:02:07.989Z,8.60
2022-11-04T22:07:12.057Z,8.00
2022-11-04T22:12:14.672Z,8.40
2022-11-04T22:17:17.584Z,7.00
2022-11-04T22:22:21.514Z,7.00
2022-11-04T22:27:24.156Z,7.80
2022-11-04T22:32:27.634Z,8.00
2022-11-04T22:37:31.630Z,7.00
2022-11-04T22:42:34.576Z,6.80
2022-11-04T22:47:37.447Z,7.20
2022-11-04T22:52:41.476Z,7.00
2022-11-04T22:57:44.082Z,6.80
2022-11-04T23:02:46.958Z,6.60
2022-11-04T23:07:51.090Z,7.00
2022-11-04T23:13:11.886Z,7.00
2022-11-04T23:18:32.135Z,8.20
2022-11-04T23:23:53.735Z,6.00
2022-11-04T23:29:13.728Z,6.40
2022-11-04T23:34:33.814Z,6.00
2022-11-04T23:39:37.794Z,6.00
2022-11-04T23:44:57.959Z,6.00
2022-11-04T23:50:18.456Z,6.00
2022-11-04T23:55:39.919Z,6.00
